North Battleford, Canada
Current Conditions -  °F | °C
As of 11:48 PM on Saturday 22 Nov 2014 (Local Time) from CYQW Reporting Station
Light Snow Light Snow  
Wind Chill:   Ceiling: 3100
Heat Index: 19°   Visibility: 3mi
Dew Point: 18°   Wind: 10mph
Humidity: 93%   Direction: 10°N
Pressure: 29.53"   Gusts: NA
Location:  52.78°N, 108.3°W
Report Text: CYQW 230548Z AUTO 01009KT 3SM -SN OVC031 M07/M08 A2953 RMK SLP033
Loading
Personal Weather Stations






























Interactive Weather Map New forecast layout! Learn more

10-Day Weather Forecast

Advertisements
Track Severe Weather on mobile